createdAt,value
2019-03-01T00:00:34.791Z,94091.32
2019-03-01T00:03:04.352Z,94094.49
2019-03-01T00:06:15.066Z,94100.04
2019-03-01T00:09:31.737Z,94090.23
2019-03-01T00:12:40.052Z,94099.80
2019-03-01T00:15:48.134Z,94094.17
2019-03-01T00:18:51.536Z,94089.79
2019-03-01T00:22:23.064Z,94093.05
2019-03-01T00:25:32.210Z,94088.25
2019-03-01T00:28:30.334Z,94090.56
2019-03-01T00:31:43.364Z,94093.77
2019-03-01T00:34:50.845Z,94082.64
2019-03-01T00:38:16.408Z,94078.34
2019-03-01T00:41:06.116Z,94065.15
2019-03-01T00:44:22.333Z,94068.66
2019-03-01T00:46:51.848Z,94070.23
2019-03-01T00:49:21.340Z,94057.78
2019-03-01T00:51:50.976Z,94055.52
2019-03-01T00:54:20.420Z,94047.97
2019-03-01T00:56:49.832Z,94051.48
2019-03-01T00:59:19.289Z,94047.97
2019-03-01T01:01:48.708Z,94046.06
2019-03-01T01:04:18.090Z,94046.73
2019-03-01T01:06:47.530Z,94041.58
2019-03-01T01:09:17.053Z,94038.17
2019-03-01T01:11:46.488Z,94039.33
2019-03-01T01:14:15.937Z,94033.00
2019-03-01T01:16:45.327Z,94030.88
2019-03-01T01:19:14.839Z,94023.90
2019-03-01T01:21:44.343Z,94018.59
2019-03-01T01:24:13.827Z,94031.98
2019-03-01T01:26:43.230Z,94032.58
2019-03-01T01:29:12.613Z,94040.48
2019-03-01T01:31:42.103Z,94038.92
2019-03-01T01:34:11.540Z,94034.06
2019-03-01T01:36:40.999Z,94034.98
2019-03-01T01:39:10.971Z,94038.43
2019-03-01T01:41:40.353Z,94029.23
2019-03-01T01:44:09.784Z,94031.64
2019-03-01T01:46:39.246Z,94034.38
2019-03-01T01:49:08.769Z,94038.43
2019-03-01T01:51:38.176Z,94036.47
2019-03-01T01:54:07.616Z,94035.79
2019-03-01T01:56:37.029Z,94037.29
2019-03-01T01:59:06.472Z,94036.81
2019-03-01T02:01:35.892Z,94041.17
2019-03-01T02:04:05.822Z,94042.13
2019-03-01T02:06:35.354Z,94046.21
2019-03-01T02:09:14.058Z,94048.96
2019-03-01T02:11:43.444Z,94049.42
2019-03-01T02:14:12.855Z,94049.59
2019-03-01T02:16:42.214Z,94044.09
2019-03-01T02:19:11.633Z,94045.45
2019-03-01T02:21:41.023Z,94048.53
2019-03-01T02:24:10.379Z,94049.70
2019-03-01T02:26:39.808Z,94040.84
2019-03-01T02:29:09.241Z,94039.09
2019-03-01T02:31:40.445Z,94034.06
2019-03-01T02:34:09.866Z,94035.09
2019-03-01T02:36:39.302Z,94028.17
2019-03-01T02:39:09.036Z,94031.39
2019-03-01T02:41:38.425Z,94031.25
2019-03-01T02:44:07.883Z,94029.17
2019-03-01T02:46:37.242Z,94032.08
2019-03-01T02:49:06.771Z,94022.08
2019-03-01T02:51:36.136Z,94017.55
2019-03-01T02:54:05.678Z,94018.02
2019-03-01T02:56:35.975Z,94018.68
2019-03-01T02:59:05.391Z,94024.64
2019-03-01T03:01:34.737Z,94027.55
2019-03-01T03:04:04.169Z,94037.87
2019-03-01T03:07:01.605Z,94032.21
2019-03-01T03:09:30.971Z,94043.16
2019-03-01T03:12:00.372Z,94036.88
2019-03-01T03:14:29.789Z,94044.88
2019-03-01T03:16:59.245Z,94043.25
2019-03-01T03:19:28.636Z,94044.38
2019-03-01T03:21:58.059Z,94041.63
2019-03-01T03:24:27.478Z,94037.27
2019-03-01T03:26:56.889Z,94041.80
2019-03-01T03:29:26.314Z,94044.88
2019-03-01T03:31:55.715Z,94049.54
2019-03-01T03:34:25.251Z,94052.61
2019-03-01T03:36:54.647Z,94053.75
2019-03-01T03:39:24.029Z,94067.67
2019-03-01T03:41:53.439Z,94060.89
2019-03-01T03:44:22.790Z,94069.30
2019-03-01T03:46:52.214Z,94071.05
2019-03-01T03:49:21.609Z,94072.45
2019-03-01T03:51:50.998Z,94067.77
2019-03-01T03:54:20.375Z,94056.15
2019-03-01T03:56:49.851Z,94053.56
2019-03-01T03:59:19.336Z,94053.23
2019-03-01T04:01:48.755Z,94045.21
2019-03-01T04:04:18.277Z,94053.25
2019-03-01T04:06:47.653Z,94053.73
2019-03-01T04:09:17.269Z,94057.11
2019-03-01T04:11:46.738Z,94059.64
2019-03-01T04:14:16.126Z,94057.33
2019-03-01T04:16:45.551Z,94052.78
2019-03-01T04:19:14.952Z,94058.36
2019-03-01T04:21:44.318Z,94051.29
2019-03-01T04:24:13.779Z,94051.92
2019-03-01T04:26:43.194Z,94053.71
2019-03-01T04:29:12.643Z,94063.35
2019-03-01T04:31:42.033Z,94059.03
2019-03-01T04:34:11.506Z,94058.69
2019-03-01T04:36:41.943Z,94060.33
2019-03-01T04:39:11.356Z,94057.58
2019-03-01T04:41:40.768Z,94060.83
2019-03-01T04:44:10.228Z,94070.83
2019-03-01T04:46:39.649Z,94065.56
2019-03-01T04:49:09.068Z,94079.59
2019-03-01T04:51:40.336Z,94080.92
2019-03-01T04:54:09.587Z,94077.17
2019-03-01T04:56:39.028Z,94070.57
2019-03-01T04:59:08.472Z,94071.41
2019-03-01T05:01:37.859Z,94064.95
2019-03-01T05:04:07.300Z,94073.86
2019-03-01T05:06:36.690Z,94072.25
2019-03-01T05:09:07.772Z,94077.78
2019-03-01T05:11:37.263Z,94070.91
2019-03-01T05:14:06.747Z,94070.42
2019-03-01T05:16:36.184Z,94068.34
2019-03-01T05:19:05.622Z,94068.67
2019-03-01T05:21:35.022Z,94073.39
2019-03-01T05:24:04.577Z,94083.39
2019-03-01T05:26:34.102Z,94090.83
2019-03-01T05:29:03.517Z,94084.84
2019-03-01T05:31:32.903Z,94083.41
2019-03-01T05:34:02.352Z,94088.58
2019-03-01T05:36:31.814Z,94078.39
2019-03-01T05:39:01.576Z,94086.28
2019-03-01T05:41:31.015Z,94087.90
2019-03-01T05:44:00.573Z,94084.91
2019-03-01T05:46:30.018Z,94089.20
2019-03-01T05:48:59.455Z,94088.31
2019-03-01T05:51:28.844Z,94084.83
2019-03-01T05:53:58.272Z,94095.30
2019-03-01T05:56:27.672Z,94099.48
2019-03-01T05:59:10.854Z,94091.42
2019-03-01T06:02:27.575Z,94106.95
2019-03-01T06:05:00.449Z,94105.02
2019-03-01T06:08:16.651Z,94112.58
2019-03-01T06:10:52.342Z,94103.59
2019-03-01T06:13:55.659Z,94111.07
2019-03-01T06:16:56.923Z,94107.48
2019-03-01T06:20:07.208Z,94108.73
2019-03-01T06:23:23.932Z,94113.38
2019-03-01T06:26:33.112Z,94116.22
2019-03-01T06:29:32.273Z,94106.93
2019-03-01T06:32:35.010Z,94117.48
2019-03-01T06:35:38.350Z,94122.03
2019-03-01T06:39:03.076Z,94105.41
2019-03-01T06:41:59.851Z,94127.41
2019-03-01T06:45:07.506Z,94106.09
2019-03-01T06:47:48.567Z,94115.91
2019-03-01T06:50:44.517Z,94119.87
2019-03-01T06:53:13.919Z,94124.95
2019-03-01T06:56:00.654Z,94125.36
2019-03-01T06:58:35.552Z,94129.78
2019-03-01T07:01:14.366Z,94128.41
2019-03-01T07:03:45.578Z,94124.91
2019-03-01T07:06:15.052Z,94129.20
2019-03-01T07:08:44.541Z,94123.27
2019-03-01T07:11:14.043Z,94121.91
2019-03-01T07:13:43.465Z,94128.72
2019-03-01T07:16:12.856Z,94119.48
2019-03-01T07:18:42.278Z,94134.48
2019-03-01T07:21:11.728Z,94126.38
2019-03-01T07:23:41.206Z,94121.91
2019-03-01T07:26:10.728Z,94125.62
2019-03-01T07:28:40.159Z,94118.17
2019-03-01T07:31:09.627Z,94107.73
2019-03-01T07:33:39.046Z,94122.95
2019-03-01T07:36:08.471Z,94118.25
2019-03-01T07:38:37.923Z,94112.03
2019-03-01T07:41:07.359Z,94121.56
2019-03-01T07:43:36.759Z,94109.98
2019-03-01T07:46:06.361Z,94110.25
2019-03-01T07:48:35.748Z,94108.77
2019-03-01T07:51:05.175Z,94109.94
2019-03-01T07:53:36.089Z,94111.46
2019-03-01T07:56:05.783Z,94114.97
2019-03-01T07:58:35.278Z,94126.12
2019-03-01T08:01:05.196Z,94112.00
2019-03-01T08:03:34.660Z,94103.53
2019-03-01T08:06:04.196Z,94113.67
2019-03-01T08:08:34.931Z,94121.70
2019-03-01T08:11:04.989Z,94113.67
2019-03-01T08:13:34.450Z,94138.58
2019-03-01T08:16:03.947Z,94104.50
2019-03-01T08:18:33.361Z,94109.24
2019-03-01T08:21:06.079Z,94138.05
2019-03-01T08:23:35.139Z,94115.98
2019-03-01T08:26:05.401Z,94140.55
2019-03-01T08:28:34.852Z,94124.62
2019-03-01T08:31:04.638Z,94103.05
2019-03-01T08:33:34.183Z,94130.14
2019-03-01T08:36:05.814Z,94108.23
2019-03-01T08:38:34.929Z,94123.00
2019-03-01T08:41:04.385Z,94117.34
2019-03-01T08:43:35.712Z,94121.39
2019-03-01T08:46:05.546Z,94155.14
2019-03-01T08:48:36.165Z,94130.98
2019-03-01T08:51:05.663Z,94133.63
2019-03-01T08:53:35.218Z,94138.33
2019-03-01T08:56:04.677Z,94141.33
2019-03-01T08:58:34.183Z,94143.81
2019-03-01T09:01:08.382Z,94142.31
2019-03-01T09:03:43.217Z,94124.48
2019-03-01T09:06:12.701Z,94120.20
2019-03-01T09:08:42.921Z,94157.44
2019-03-01T09:11:13.637Z,94136.34
2019-03-01T09:13:43.161Z,94128.92
2019-03-01T09:16:12.638Z,94139.40
2019-03-01T09:18:42.390Z,94149.22
2019-03-01T09:21:12.925Z,94135.83
2019-03-01T09:23:43.158Z,94154.06
2019-03-01T09:26:12.672Z,94148.42
2019-03-01T09:28:42.120Z,94133.67
2019-03-01T09:31:11.730Z,94132.24
2019-03-01T09:33:41.215Z,94141.31
2019-03-01T09:36:18.051Z,94145.08
2019-03-01T09:38:45.989Z,94136.83
2019-03-01T09:41:15.512Z,94125.30
2019-03-01T09:43:44.958Z,94127.28
2019-03-01T09:46:14.433Z,94109.77
2019-03-01T09:48:45.593Z,94132.65
2019-03-01T09:51:15.959Z,94154.95
2019-03-01T09:53:45.559Z,94120.88
2019-03-01T09:56:14.972Z,94118.94
2019-03-01T09:58:44.458Z,94122.08
2019-03-01T10:01:16.194Z,94115.27
2019-03-01T10:03:46.147Z,94101.66
2019-03-01T10:06:15.632Z,94122.89
2019-03-01T10:08:45.198Z,94141.70
2019-03-01T10:11:14.725Z,94100.02
2019-03-01T10:13:44.214Z,94089.39
2019-03-01T10:16:13.795Z,94100.30
2019-03-01T10:18:43.205Z,94103.53
2019-03-01T10:21:12.573Z,94092.33
2019-03-01T10:23:41.987Z,94100.65
2019-03-01T10:26:11.397Z,94086.11
2019-03-01T10:28:40.805Z,94083.44
2019-03-01T10:31:10.245Z,94082.83
2019-03-01T10:33:39.722Z,94087.36
2019-03-01T10:36:09.290Z,94084.16
2019-03-01T10:38:38.662Z,94089.88
2019-03-01T10:41:08.097Z,94073.36
2019-03-01T10:43:37.519Z,94084.91
2019-03-01T10:46:06.903Z,94067.33
2019-03-01T10:48:36.326Z,94069.04
2019-03-01T10:51:05.701Z,94056.60
2019-03-01T10:53:35.085Z,94081.89
2019-03-01T10:56:04.537Z,94058.33
2019-03-01T10:58:33.981Z,94045.23
2019-03-01T11:01:04.043Z,94045.23
2019-03-01T11:03:33.426Z,94026.48
2019-03-01T11:06:02.811Z,94042.23
2019-03-01T11:08:32.251Z,94032.91
2019-03-01T11:11:01.634Z,94027.38
2019-03-01T11:13:31.056Z,94032.11
2019-03-01T11:16:00.429Z,94019.80
2019-03-01T11:18:29.813Z,94027.84
2019-03-01T11:20:59.193Z,94017.70
2019-03-01T11:23:28.585Z,94009.00
2019-03-01T11:25:57.997Z,94013.17
2019-03-01T11:28:27.526Z,94016.53
2019-03-01T11:30:56.935Z,94012.61
2019-03-01T11:33:26.308Z,93997.05
2019-03-01T11:35:55.744Z,93995.73
2019-03-01T11:38:25.135Z,93985.23
2019-03-01T11:40:55.899Z,94000.33
2019-03-01T11:43:25.421Z,93997.80
2019-03-01T11:45:54.790Z,94008.52
2019-03-01T11:48:24.191Z,93983.69
2019-03-01T11:50:53.669Z,93990.06
2019-03-01T11:53:23.053Z,94012.70
2019-03-01T11:55:52.496Z,94010.55
2019-03-01T11:58:21.981Z,94016.48
2019-03-01T12:00:52.427Z,94003.73
2019-03-01T12:03:21.971Z,94018.13
2019-03-01T12:05:51.372Z,93983.54
2019-03-01T12:08:20.756Z,93985.38
2019-03-01T12:10:50.220Z,93987.34
2019-03-01T12:13:19.598Z,93974.11
2019-03-01T12:15:48.979Z,94024.05
2019-03-01T12:18:18.350Z,93994.02
2019-03-01T12:20:47.715Z,93974.44
2019-03-01T12:23:17.139Z,93986.28
2019-03-01T12:25:46.861Z,93982.09
2019-03-01T12:28:16.342Z,93966.99
2019-03-01T12:30:45.737Z,93992.72
2019-03-01T12:33:15.180Z,93968.98
2019-03-01T12:35:44.721Z,93969.19
2019-03-01T12:38:14.181Z,93969.17
2019-03-01T12:40:43.615Z,93948.56
2019-03-01T12:43:13.114Z,93956.42
2019-03-01T12:45:42.455Z,93951.92
2019-03-01T12:48:12.798Z,93951.30
2019-03-01T12:50:42.192Z,93960.85
2019-03-01T12:53:11.666Z,93955.30
2019-03-01T12:55:41.057Z,93941.67
2019-03-01T12:58:19.205Z,93947.80
2019-03-01T13:00:41.877Z,93944.73
2019-03-01T13:03:11.263Z,93937.59
2019-03-01T13:05:40.672Z,93952.20
2019-03-01T13:08:12.519Z,93932.95
2019-03-01T13:10:41.481Z,93932.56
2019-03-01T13:13:10.976Z,93940.73
2019-03-01T13:15:40.364Z,93916.07
2019-03-01T13:18:15.750Z,93925.22
2019-03-01T13:20:41.205Z,93918.63
2019-03-01T13:23:10.585Z,93917.38
2019-03-01T13:25:39.968Z,93910.74
2019-03-01T13:28:09.362Z,93942.39
2019-03-01T13:30:38.742Z,93921.47
2019-03-01T13:33:08.121Z,93926.30
2019-03-01T13:35:37.552Z,93906.80
2019-03-01T13:38:06.930Z,93903.05
2019-03-01T13:40:36.329Z,93890.77
2019-03-01T13:43:05.745Z,93906.55
2019-03-01T13:45:38.158Z,93907.12
2019-03-01T13:48:07.534Z,93897.48
2019-03-01T13:50:38.326Z,93897.98
2019-03-01T13:53:08.037Z,93902.47
2019-03-01T13:55:37.435Z,93894.59
2019-03-01T13:58:06.806Z,93904.08
2019-03-01T14:00:36.155Z,93892.31
2019-03-01T14:03:05.543Z,93882.60
2019-03-01T14:05:34.918Z,93879.23
2019-03-01T14:08:09.059Z,93866.64
2019-03-01T14:10:38.555Z,93863.77
2019-03-01T14:13:07.144Z,93879.82
2019-03-01T14:15:38.514Z,93856.77
2019-03-01T14:18:07.720Z,93856.50
2019-03-01T14:20:37.164Z,93851.48
2019-03-01T14:23:06.578Z,93868.39
2019-03-01T14:25:38.566Z,93854.55
2019-03-01T14:28:07.124Z,93856.36
2019-03-01T14:30:36.509Z,93860.00
2019-03-01T14:33:05.872Z,93878.08
2019-03-01T14:35:35.253Z,93852.19
2019-03-01T14:38:04.812Z,93861.38
2019-03-01T14:40:34.183Z,93858.19
2019-03-01T14:43:03.835Z,93859.36
2019-03-01T14:45:33.191Z,93851.81
2019-03-01T14:48:05.046Z,93848.89
2019-03-01T14:50:34.775Z,93861.05
2019-03-01T14:53:04.245Z,93843.84
2019-03-01T14:55:38.530Z,93849.69
2019-03-01T14:58:15.168Z,93853.70
2019-03-01T15:01:29.727Z,93834.13
2019-03-01T15:03:59.096Z,93836.77
2019-03-01T15:06:28.487Z,93839.92
2019-03-01T15:08:57.887Z,93842.77
2019-03-01T15:11:27.258Z,93849.92
2019-03-01T15:13:57.157Z,93850.37
2019-03-01T15:16:26.586Z,93839.31
2019-03-01T15:18:55.984Z,93854.60
2019-03-01T15:21:25.367Z,93861.25
2019-03-01T15:23:56.269Z,93858.95
2019-03-01T15:26:26.592Z,93856.57
2019-03-01T15:28:58.901Z,93859.80
2019-03-01T15:31:28.488Z,93857.64
2019-03-01T15:33:57.864Z,93865.27
2019-03-01T15:36:27.214Z,93861.09
2019-03-01T15:38:56.572Z,93855.57
2019-03-01T15:41:26.751Z,93860.33
2019-03-01T15:43:56.133Z,93868.20
2019-03-01T15:46:25.481Z,93861.86
2019-03-01T15:48:54.847Z,93861.58
2019-03-01T15:51:24.208Z,93862.22
2019-03-01T15:53:53.605Z,93871.45
2019-03-01T15:56:23.015Z,93877.05
2019-03-01T15:58:52.418Z,93869.92
2019-03-01T16:01:21.818Z,93872.51
2019-03-01T16:03:54.096Z,93877.14
2019-03-01T16:06:22.441Z,93877.14
2019-03-01T16:08:51.769Z,93878.52
2019-03-01T16:11:21.155Z,93873.14
2019-03-01T16:13:50.631Z,93878.97
2019-03-01T16:16:20.052Z,93878.58
2019-03-01T16:18:49.502Z,93884.81
2019-03-01T16:21:18.931Z,93890.45
2019-03-01T16:23:48.370Z,93888.64
2019-03-01T16:26:17.779Z,93884.08
2019-03-01T16:28:47.365Z,93884.55
2019-03-01T16:31:16.776Z,93883.69
2019-03-01T16:33:46.130Z,93896.00
2019-03-01T16:36:26.473Z,93900.43
2019-03-01T16:38:56.366Z,93895.14
2019-03-01T16:41:25.702Z,93893.86
2019-03-01T16:43:55.109Z,93898.19
2019-03-01T16:46:24.495Z,93901.30
2019-03-01T16:48:53.884Z,93901.00
2019-03-01T16:51:23.238Z,93903.39
2019-03-01T16:53:52.632Z,93901.22
2019-03-01T16:56:22.065Z,93906.93
2019-03-01T16:58:51.496Z,93904.04
2019-03-01T17:01:20.880Z,93907.04
2019-03-01T17:03:52.732Z,93902.52
2019-03-01T17:06:21.417Z,93902.53
2019-03-01T17:08:50.815Z,93910.14
2019-03-01T17:11:20.181Z,93916.83
2019-03-01T17:13:49.589Z,93916.14
2019-03-01T17:16:20.481Z,93914.45
2019-03-01T17:18:50.101Z,93910.83
2019-03-01T17:21:19.518Z,93918.84
2019-03-01T17:23:48.898Z,93918.44
2019-03-01T17:26:18.494Z,93911.55
2019-03-01T17:28:49.813Z,93918.16
2019-03-01T17:31:19.469Z,93913.63
2019-03-01T17:33:50.029Z,93919.25
2019-03-01T17:36:19.533Z,93919.05
2019-03-01T17:38:48.911Z,93920.35
2019-03-01T17:41:18.266Z,93929.57
2019-03-01T17:43:47.679Z,93922.86
2019-03-01T17:46:17.106Z,93929.44
2019-03-01T17:48:46.530Z,93937.66
2019-03-01T17:51:18.260Z,93937.80
2019-03-01T17:53:47.258Z,93933.87
2019-03-01T17:56:18.584Z,93932.77
2019-03-01T17:58:48.001Z,93932.45
2019-03-01T18:01:17.384Z,93939.11
2019-03-01T18:03:46.758Z,93941.50
2019-03-01T18:06:16.798Z,93945.58
2019-03-01T18:08:47.377Z,93947.77
2019-03-01T18:11:16.738Z,93946.72
2019-03-01T18:13:46.138Z,93946.44
2019-03-01T18:16:15.608Z,93938.38
2019-03-01T18:18:48.757Z,93935.88
2019-03-01T18:21:16.074Z,93944.44
2019-03-01T18:23:45.458Z,93929.31
2019-03-01T18:26:14.814Z,93934.30
2019-03-01T18:28:44.243Z,93931.58
2019-03-01T18:31:13.600Z,93936.44
2019-03-01T18:33:43.002Z,93935.14
2019-03-01T18:36:12.384Z,93939.17
2019-03-01T18:38:41.761Z,93935.66
2019-03-01T18:41:11.549Z,93939.17
2019-03-01T18:43:40.940Z,93942.28
2019-03-01T18:46:10.410Z,93938.03
2019-03-01T18:48:40.547Z,93941.77
2019-03-01T18:51:10.934Z,93944.81
2019-03-01T18:53:40.335Z,93945.33
2019-03-01T18:56:09.831Z,93948.25
2019-03-01T18:58:39.199Z,93955.17
2019-03-01T19:01:11.695Z,93951.67
2019-03-01T19:03:41.524Z,93956.75
2019-03-01T19:06:12.825Z,93954.78
2019-03-01T19:08:42.041Z,93955.34
2019-03-01T19:11:11.469Z,93950.02
2019-03-01T19:13:40.835Z,93952.94
2019-03-01T19:16:10.576Z,93945.09
2019-03-01T19:18:42.138Z,93943.95
2019-03-01T19:21:13.888Z,93943.48
2019-03-01T19:23:42.153Z,93942.22
2019-03-01T19:26:11.525Z,93940.30
2019-03-01T19:28:40.944Z,93942.84
2019-03-01T19:31:10.301Z,93945.33
2019-03-01T19:33:41.635Z,93944.89
2019-03-01T19:36:10.868Z,93949.09
2019-03-01T19:38:40.245Z,93944.43
2019-03-01T19:41:09.727Z,93950.52
2019-03-01T19:43:41.666Z,93941.43
2019-03-01T19:46:12.582Z,93947.00
2019-03-01T19:48:41.389Z,93943.59
2019-03-01T19:51:10.747Z,93948.97
2019-03-01T19:53:40.116Z,93948.03
2019-03-01T19:56:09.489Z,93947.16
2019-03-01T19:58:38.954Z,93951.44
2019-03-01T20:01:08.354Z,93950.40
2019-03-01T20:03:37.687Z,93949.70
2019-03-01T20:06:07.869Z,93944.77
2019-03-01T20:08:38.258Z,93954.11
2019-03-01T20:11:07.605Z,93942.72
2019-03-01T20:13:36.967Z,93938.51
2019-03-01T20:16:06.394Z,93941.67
2019-03-01T20:18:35.766Z,93944.89
2019-03-01T20:21:05.869Z,93945.73
2019-03-01T20:23:36.320Z,93943.79
2019-03-01T20:26:05.693Z,93950.52
2019-03-01T20:28:35.070Z,93947.37
2019-03-01T20:31:04.930Z,93946.86
2019-03-01T20:33:35.251Z,93947.13
2019-03-01T20:36:05.193Z,93941.48
2019-03-01T20:38:37.017Z,93943.33
2019-03-01T20:41:05.683Z,93944.07
2019-03-01T20:46:03.949Z,93936.42
2019-03-01T20:48:33.578Z,93931.33
2019-03-01T20:51:02.968Z,93934.51
2019-03-01T20:53:32.421Z,93931.33
2019-03-01T20:56:01.820Z,93925.86
2019-03-01T20:58:31.279Z,93928.98
2019-03-01T21:01:02.012Z,93925.59
2019-03-01T21:03:31.695Z,93926.58
2019-03-01T21:06:01.766Z,93924.36
2019-03-01T21:08:32.161Z,93933.77
2019-03-01T21:11:01.660Z,93922.69
2019-03-01T21:13:31.013Z,93930.23
2019-03-01T21:16:00.405Z,93939.33
2019-03-01T21:18:30.824Z,93936.52
2019-03-01T21:21:00.864Z,93938.36
2019-03-01T21:23:30.277Z,93934.95
2019-03-01T21:25:59.663Z,93934.87
2019-03-01T21:28:29.209Z,93934.55
2019-03-01T21:30:59.002Z,93927.69
2019-03-01T21:33:29.317Z,93929.11
2019-03-01T21:35:58.679Z,93931.20
2019-03-01T21:38:28.054Z,93927.43
2019-03-01T21:40:57.455Z,93929.97
2019-03-01T21:43:26.827Z,93934.23
2019-03-01T21:45:58.968Z,93928.54
2019-03-01T21:48:27.286Z,93920.55
2019-03-01T21:50:56.628Z,93918.94
2019-03-01T21:53:26.169Z,93917.17
2019-03-01T21:55:55.530Z,93913.94
2019-03-01T21:58:24.943Z,93916.39
2019-03-01T22:00:54.370Z,93915.62
2019-03-01T22:03:24.843Z,93913.41
2019-03-01T22:05:54.850Z,93916.39
2019-03-01T22:08:24.246Z,93920.94
2019-03-01T22:10:53.691Z,93911.23
2019-03-01T22:13:23.027Z,93919.99
2019-03-01T22:15:52.390Z,93914.91
2019-03-01T22:18:23.613Z,93911.47
2019-03-01T22:20:52.874Z,93913.56
2019-03-01T22:23:22.237Z,93912.85
2019-03-01T22:25:51.660Z,93907.98
2019-03-01T22:28:21.338Z,93916.30
2019-03-01T22:30:50.839Z,93911.34
2019-03-01T22:33:20.777Z,93913.22
2019-03-01T22:35:51.387Z,93915.89
2019-03-01T22:38:20.749Z,93913.23
2019-03-01T22:40:50.174Z,93914.52
2019-03-01T22:43:22.546Z,93918.56
2019-03-01T22:45:50.678Z,93916.93
2019-03-01T22:48:20.051Z,93916.08
2019-03-01T22:50:49.434Z,93916.53
2019-03-01T22:53:18.851Z,93915.17
2019-03-01T22:55:48.238Z,93918.80
2019-03-01T22:58:17.666Z,93917.11
2019-03-01T23:01:17.355Z,93911.23
2019-03-01T23:03:54.908Z,93910.66
2019-03-01T23:06:22.920Z,93917.38
2019-03-01T23:08:52.307Z,93912.72
2019-03-01T23:11:21.673Z,93918.94
2019-03-01T23:13:52.788Z,93916.63
2019-03-01T23:16:22.098Z,93910.95
2019-03-01T23:18:56.594Z,93911.03
2019-03-01T23:21:22.529Z,93915.42
2019-03-01T23:23:51.894Z,93904.02
2019-03-01T23:26:21.540Z,93910.05
2019-03-01T23:28:51.806Z,93914.39
2019-03-01T23:31:21.186Z,93910.77
2019-03-01T23:33:50.559Z,93918.73
2019-03-01T23:36:20.256Z,93918.59
2019-03-01T23:38:50.206Z,93921.77
2019-03-01T23:41:20.607Z,93922.44
2019-03-01T23:43:49.979Z,93917.45
2019-03-01T23:46:19.366Z,93916.84
2019-03-01T23:48:48.993Z,93908.30
2019-03-01T23:51:19.108Z,93919.78
2019-03-01T23:53:48.482Z,93924.20
2019-03-01T23:56:17.824Z,93925.88
2019-03-01T23:58:47.988Z,93920.69
